Time;durP1;ratioP1;P1;durP2;ratioP2;P2;SDS_P1;SDS_P2;PMS_P1;PMS_P2;Temp;Humidity;BMP_temperature;BMP_pressure;BME280_temperature;BME280_humidity;BME280_pressure;Samples;Min_cycle;Max_cycle;Signal;HPM_P1;HPM_P2
2022/10/16 00:00:47;;;;;;;20.80;10.07;;;;;;;9.46;100.00;102294.59;2061437;28;20448;-63
2022/10/16 00:01:47;;;;;;;12.83;9.90;;;;;;;9.47;100.00;102293.41;2062126;28;20206;-62
2022/10/16 00:02:48;;;;;;;12.17;9.60;;;;;;;9.48;100.00;102299.75;2061791;28;20638;-63
2022/10/16 00:03:49;;;;;;;16.10;9.97;;;;;;;9.49;100.00;102295.78;2061491;28;20201;-63
2022/10/16 00:04:49;;;;;;;12.10;9.43;;;;;;;9.51;100.00;102301.72;2060834;28;20202;-63
2022/10/16 00:05:50;;;;;;;14.43;9.40;;;;;;;9.50;100.00;102303.72;2061984;28;20432;-63
2022/10/16 00:06:50;;;;;;;10.30;8.70;;;;;;;9.54;100.00;102306.50;2061252;28;20213;-62
2022/10/16 00:07:51;;;;;;;15.20;9.27;;;;;;;9.53;100.00;102302.16;2062144;28;20639;-63
2022/10/16 00:08:52;;;;;;;11.23;8.23;;;;;;;9.19;100.00;102250.91;2061343;28;20216;-63
2022/10/16 00:09:52;;;;;;;10.90;8.07;;;;;;;9.54;100.00;102300.97;2062147;28;20265;-63
2022/10/16 00:10:59;;;;;;;10.90;8.70;;;;;;;9.20;100.00;102249.72;2061409;28;21152;-62
2022/10/16 00:11:59;;;;;;;11.40;8.07;;;;;;;9.50;100.00;102294.59;2062021;28;20182;-62
2022/10/16 00:13:00;;;;;;;12.13;8.53;;;;;;;9.24;100.00;102254.13;2061630;28;20864;-62
2022/10/16 00:14:02;;;;;;;12.87;8.40;;;;;;;9.40;100.00;102278.72;2061080;28;20192;-62
2022/10/16 00:15:03;;;;;;;12.67;7.83;;;;;;;9.45;100.00;102290.25;2061362;28;20191;-63
2022/10/16 00:16:04;;;;;;;10.80;8.00;;;;;;;9.44;100.00;102302.47;2061699;28;20982;-63
2022/10/16 00:17:05;;;;;;;10.55;7.63;;;;;;;9.44;100.00;102293.38;2061996;28;20664;-63
2022/10/16 00:18:05;;;;;;;11.33;7.70;;;;;;;9.40;100.00;102298.91;2061760;28;20667;-63
2022/10/16 00:19:06;;;;;;;14.27;8.80;;;;;;;9.38;100.00;102292.16;2061698;28;20206;-63
2022/10/16 00:20:07;;;;;;;9.83;8.17;;;;;;;9.32;100.00;102283.41;2062103;28;20676;-63
2022/10/16 00:21:14;;;;;;;10.23;8.70;;;;;;;9.36;100.00;102288.97;2061813;28;20431;-63
2022/10/16 00:22:15;;;;;;;9.65;8.00;;;;;;;9.33;100.00;102289.75;2061292;28;20442;-63
2022/10/16 00:23:15;;;;;;;10.33;8.57;;;;;;;9.27;100.00;102282.97;2061575;28;20279;-62
2022/10/16 00:24:16;;;;;;;11.30;8.23;;;;;;;9.16;100.00;102287.63;2061044;28;20193;-62
2022/10/16 00:25:16;;;;;;;14.53;8.73;;;;;;;9.29;100.00;102294.44;2061223;28;21187;-63
2022/10/16 00:26:17;;;;;;;15.40;9.30;;;;;;;8.92;100.00;102230.16;2061799;28;20194;-63
2022/10/16 00:27:18;;;;;;;12.57;8.83;;;;;;;9.25;100.00;102288.91;2061788;28;20678;-63
2022/10/16 00:28:18;;;;;;;10.47;8.30;;;;;;;9.24;100.00;102281.78;2061391;28;20447;-63
2022/10/16 00:29:19;;;;;;;13.20;8.90;;;;;;;9.22;100.00;102277.81;2061869;28;20291;-62
2022/10/16 00:30:19;;;;;;;10.87;8.37;;;;;;;8.92;100.00;102236.44;2061735;28;20184;-62
2022/10/16 00:31:21;;;;;;;13.10;8.67;;;;;;;9.19;100.00;102276.59;2061835;28;20593;-62
2022/10/16 00:32:21;;;;;;;14.60;9.03;;;;;;;9.19;100.00;102268.31;2062260;28;20242;-62
2022/10/16 00:33:22;;;;;;;10.50;7.93;;;;;;;9.18;100.00;102286.06;2061615;28;20523;-62
2022/10/16 00:34:23;;;;;;;13.73;8.20;;;;;;;9.18;100.00;102271.44;2061160;28;20634;-62
2022/10/16 00:35:23;;;;;;;13.33;8.70;;;;;;;9.18;100.00;102269.47;2061420;28;20192;-62
2022/10/16 00:36:25;;;;;;;10.20;7.87;;;;;;;9.17;100.00;102278.16;2061907;28;20195;-62
2022/10/16 00:37:26;;;;;;;12.40;8.27;;;;;;;8.96;100.00;102242.03;2061761;28;20205;-63
2022/10/16 00:38:26;;;;;;;12.77;8.27;;;;;;;9.16;100.00;102285.66;2061529;28;20176;-62
2022/10/16 00:39:27;;;;;;;12.03;8.50;;;;;;;9.11;100.00;102279.66;2061707;28;20267;-62
2022/10/16 00:40:28;;;;;;;12.80;8.03;;;;;;;9.17;100.00;102278.16;2062012;28;20221;-62
2022/10/16 00:41:29;;;;;;;13.57;8.10;;;;;;;9.16;100.00;102269.06;2062037;28;20294;-62
2022/10/16 00:42:30;;;;;;;12.57;8.23;;;;;;;9.16;100.00;102279.31;2061934;28;21029;-63
2022/10/16 00:43:39;;;;;;;11.43;7.87;;;;;;;9.17;100.00;102275.41;2061449;28;20436;-63
2022/10/16 00:44:52;;;;;;;12.73;8.50;;;;;;;9.16;100.00;102279.31;2061326;28;20198;-63
2022/10/16 00:45:52;;;;;;;10.63;8.00;;;;;;;9.15;100.00;102278.53;2061448;28;20478;-63
2022/10/16 00:46:53;;;;;;;12.83;8.23;;;;;;;9.10;100.00;102272.56;2061420;28;20481;-63
2022/10/16 00:47:56;;;;;;;12.70;7.80;;;;;;;9.15;100.00;102278.53;2061622;28;20552;-63
2022/10/16 00:49:10;;;;;;;13.52;7.70;;;;;;;9.15;100.00;102281.31;2061592;28;20243;-63
2022/10/16 00:50:27;;;;;;;11.00;7.93;;;;;;;9.04;100.00;102266.59;2060996;28;20199;-63
2022/10/16 00:51:37;;;;;;;15.30;7.77;;;;;;;9.15;100.00;102274.97;2061690;28;20454;-63
2022/10/16 00:52:41;;;;;;;11.47;7.50;;;;;;;9.14;100.00;102276.16;2061677;28;20467;-63
2022/10/16 00:53:42;;;;;;;13.52;8.32;;;;;;;9.14;100.00;102278.91;2061388;28;20451;-63
2022/10/16 00:54:43;;;;;;;10.97;7.53;;;;;;;9.16;100.00;102282.09;2061015;28;20216;-63
2022/10/16 00:55:43;;;;;;;13.80;7.97;;;;;;;9.16;100.00;102285.66;2061542;28;20691;-63
2022/10/16 00:56:45;;;;;;;12.63;7.13;;;;;;;8.98;100.00;102264.56;2061643;28;20432;-63
2022/10/16 00:57:47;;;;;;;10.27;7.40;;;;;;;9.03;100.00;102259.44;2061651;28;20549;-63
2022/10/16 00:58:47;;;;;;;9.88;7.18;;;;;;;9.15;100.00;102281.31;2061539;28;20428;-63
2022/10/16 00:59:48;;;;;;;10.87;7.30;;;;;;;9.13;100.00;102280.09;2061895;28;20679;-63
2022/10/16 01:00:48;;;;;;;10.33;7.07;;;;;;;9.16;100.00;102288.41;2061502;28;20216;-63
2022/10/16 01:01:49;;;;;;;8.70;7.13;;;;;;;9.15;100.00;102284.06;2061907;28;20608;-63
2022/10/16 01:02:57;;;;;;;8.87;6.73;;;;;;;9.08;100.00;102291.50;2061743;28;20550;-63
2022/10/16 01:03:58;;;;;;;9.33;6.90;;;;;;;9.01;100.00;102292.25;2061077;28;20275;-63
2022/10/16 01:04:58;;;;;;;11.33;6.67;;;;;;;8.99;100.00;102289.06;2060824;28;20430;-63
2022/10/16 01:06:23;;;;;;;9.17;6.90;;;;;;;8.97;100.00;102296.16;2061263;28;20191;-63
2022/10/16 01:07:43;;;;;;;9.38;7.20;;;;;;;8.90;100.00;102296.06;2061664;28;20241;-63
2022/10/16 01:08:50;;;;;;;10.57;7.10;;;;;;;8.85;100.00;102291.69;2061903;28;20189;-63
2022/10/16 01:10:09;;;;;;;10.85;6.97;;;;;;;8.81;100.00;102299.16;2061348;28;20664;-63
2022/10/16 01:12:04;;;;;;;10.48;7.43;;;;;;;8.68;100.00;102289.56;2061696;28;20250;-63
2022/10/16 01:13:11;;;;;;;13.10;7.80;;;;;;;8.27;100.00;102243.72;2060211;28;20190;-63
2022/10/16 01:14:21;;;;;;;12.27;7.50;;;;;;;8.38;100.00;102249.34;2059603;28;20184;-63
2022/10/16 01:15:37;;;;;;;15.63;8.30;;;;;;;8.55;100.00;102298.47;2060778;28;20195;-64
2022/10/16 01:16:49;;;;;;;18.67;8.27;;;;;;;8.52;100.00;102296.47;2062002;28;20257;-64
2022/10/16 01:18:04;;;;;;;17.73;7.57;;;;;;;8.52;100.00;102302.81;2061690;28;20652;-64
2022/10/16 01:19:30;;;;;;;11.50;6.97;;;;;;;8.47;100.00;102297.63;2063041;28;20191;-64
2022/10/16 01:20:37;;;;;;;13.27;7.32;;;;;;;8.43;100.00;102302.31;2062959;28;20188;-64
2022/10/16 01:21:44;;;;;;;12.70;7.50;;;;;;;8.41;100.00;102309.38;2063084;28;20652;-64
2022/10/16 01:23:07;;;;;;;10.27;7.65;;;;;;;8.33;100.00;102300.22;2063130;28;20201;-64
2022/10/16 01:24:23;;;;;;;11.50;7.82;;;;;;;8.32;100.00;102304.16;2062528;28;20560;-64
2022/10/16 01:25:48;;;;;;;15.57;7.53;;;;;;;8.26;100.00;102310.38;2062901;28;20709;-64
2022/10/16 01:27:12;;;;;;;12.85;8.15;;;;;;;8.27;100.00;102312.78;2062815;28;20257;-64
2022/10/16 01:28:14;;;;;;;13.45;7.57;;;;;;;8.27;100.00;102312.78;2063117;28;20194;-64
2022/10/16 01:29:22;;;;;;;14.60;7.65;;;;;;;8.29;100.00;102329.75;2062519;28;20203;-65
2022/10/16 01:30:27;;;;;;;12.38;7.07;;;;;;;7.89;100.00;102240.47;2063026;28;20213;-64
2022/10/16 01:31:33;;;;;;;8.73;6.95;;;;;;;8.34;100.00;102312.84;2063030;28;20265;-64
2022/10/16 01:32:45;;;;;;;9.40;6.60;;;;;;;8.34;100.00;102321.13;2062990;28;20698;-65
2022/10/16 01:33:51;;;;;;;12.85;7.20;;;;;;;8.12;100.00;102282.56;2062372;28;20190;-64
2022/10/16 01:35:26;;;;;;;12.77;7.55;;;;;;;8.38;100.00;102321.97;2062134;28;20198;-64
2022/10/16 01:36:36;;;;;;;12.18;7.30;;;;;;;8.37;100.00;102320.41;2062818;28;20190;-64
2022/10/16 01:37:44;;;;;;;10.43;7.15;;;;;;;8.35;100.00;102322.72;2062871;28;20186;-64
2022/10/16 01:38:47;;;;;;;10.48;7.07;;;;;;;8.33;100.00;102316.78;2062630;28;20623;-64
2022/10/16 01:39:50;;;;;;;13.07;7.00;;;;;;;8.31;100.00;102323.88;2062399;28;20591;-65
2022/10/16 01:40:57;;;;;;;10.15;7.13;;;;;;;8.28;100.00;102330.13;2061947;28;20194;-65
2022/10/16 01:42:16;;;;;;;10.45;7.28;;;;;;;7.95;100.00;102281.16;2063160;28;20696;-64
2022/10/16 01:43:22;;;;;;;10.98;7.32;;;;;;;8.22;100.00;102321.41;2063073;28;20622;-64
2022/10/16 01:44:29;;;;;;;10.10;7.40;;;;;;;8.18;100.00;102328.00;2062458;28;20534;-64
2022/10/16 01:45:31;;;;;;;13.82;8.10;;;;;;;8.19;100.00;102329.56;2062944;28;20675;-64
2022/10/16 01:46:34;;;;;;;10.43;7.60;;;;;;;7.85;100.00;102269.97;2062823;28;20218;-64
2022/10/16 01:47:35;;;;;;;11.13;8.57;;;;;;;8.20;100.00;102323.72;2062651;28;20495;-64
2022/10/16 01:48:36;;;;;;;10.63;8.40;;;;;;;8.20;100.00;102337.53;2062527;28;20465;-64
2022/10/16 01:49:39;;;;;;;12.77;8.93;;;;;;;8.12;100.00;102319.25;2062607;28;20475;-64
2022/10/16 01:50:43;;;;;;;13.17;8.73;;;;;;;8.25;100.00;102330.91;2062874;28;20454;-64
2022/10/16 01:51:48;;;;;;;11.33;8.10;;;;;;;7.91;100.00;102285.03;2062754;28;20436;-64
2022/10/16 01:52:53;;;;;;;12.70;8.53;;;;;;;8.26;100.00;102351.81;2062675;28;20470;-64
2022/10/16 01:53:57;;;;;;;11.67;9.03;;;;;;;8.26;100.00;102347.06;2062437;28;20534;-64
2022/10/16 01:55:00;;;;;;;9.33;7.57;;;;;;;8.29;100.00;102351.84;2061817;28;20808;-64
2022/10/16 01:56:03;;;;;;;12.30;7.93;;;;;;;8.30;100.00;102347.13;2063133;28;20977;-64
2022/10/16 01:57:07;;;;;;;12.90;9.00;;;;;;;8.30;100.00;102347.91;2062696;28;20444;-64
2022/10/16 01:58:10;;;;;;;10.57;7.27;;;;;;;8.33;100.00;102354.66;2063118;28;20889;-64
2022/10/16 01:59:15;;;;;;;11.90;9.07;;;;;;;8.34;100.00;102354.28;2062640;28;20456;-64
2022/10/16 02:00:17;;;;;;;17.47;8.63;;;;;;;8.36;100.00;102351.16;2062761;28;20472;-64
2022/10/16 02:01:21;;;;;;;13.63;8.33;;;;;;;8.36;100.00;102351.94;2062773;28;20801;-64
2022/10/16 02:02:25;;;;;;;15.73;8.63;;;;;;;8.37;100.00;102344.47;2062814;28;20448;-64
2022/10/16 02:03:25;;;;;;;14.13;7.57;;;;;;;8.41;100.00;102346.06;2062338;28;20453;-64
2022/10/16 02:04:34;;;;;;;13.87;8.93;;;;;;;8.42;100.00;102344.13;2062129;28;20966;-64
2022/10/16 02:05:39;;;;;;;13.10;8.93;;;;;;;8.46;100.00;102348.50;2062198;28;20224;-65
2022/10/16 02:06:40;;;;;;;12.70;9.07;;;;;;;8.29;100.00;102324.22;2062823;28;20461;-64
2022/10/16 02:07:41;;;;;;;15.43;8.50;;;;;;;8.43;100.00;102349.28;2062509;28;20734;-64
2022/10/16 02:08:43;;;;;;;13.63;8.27;;;;;;;8.46;100.00;102350.50;2062397;28;20181;-64
2022/10/16 02:09:44;;;;;;;15.77;8.67;;;;;;;8.47;100.00;102344.59;2062473;28;20837;-64
2022/10/16 02:10:45;;;;;;;17.00;8.30;;;;;;;8.49;100.00;102349.72;2062266;28;20456;-64
2022/10/16 02:11:46;;;;;;;12.47;8.00;;;;;;;8.50;100.00;102356.88;2062947;28;20434;-64
2022/10/16 02:12:57;;;;;;;12.57;7.80;;;;;;;8.46;100.00;102345.75;2062915;28;20197;-64
2022/10/16 02:14:05;;;;;;;10.73;8.10;;;;;;;8.54;100.00;102357.69;2061897;28;20204;-64
2022/10/16 02:15:06;;;;;;;11.77;7.93;;;;;;;8.55;100.00;102349.03;2061774;28;20455;-64
2022/10/16 02:16:07;;;;;;;12.37;7.90;;;;;;;8.05;100.00;102265.91;2062797;28;20444;-64
2022/10/16 02:17:14;;;;;;;13.37;7.27;;;;;;;8.58;100.00;102340.00;2061403;28;20473;-64
2022/10/16 02:18:15;;;;;;;9.83;7.33;;;;;;;8.60;100.00;102351.44;2061608;28;20503;-65
2022/10/16 02:19:19;;;;;;;15.20;8.13;;;;;;;8.62;100.00;102349.09;2062415;28;20440;-65
2022/10/16 02:20:25;;;;;;;17.60;8.67;;;;;;;8.62;100.00;102354.63;2061844;28;20196;-65
2022/10/16 02:21:33;;;;;;;18.67;8.97;;;;;;;8.53;100.00;102339.50;2062379;28;20931;-64
2022/10/16 02:22:43;;;;;;;26.13;8.47;;;;;;;8.65;100.00;102358.59;2062405;28;20461;-64
2022/10/16 02:24:18;;;;;;;14.80;8.33;;;;;;;8.63;100.00;102359.00;2061838;28;20423;-64
2022/10/16 02:25:31;;;;;;;11.47;7.03;;;;;;;8.66;100.00;102365.75;2062120;28;20527;-64
2022/10/16 02:26:41;;;;;;;12.70;7.40;;;;;;;8.63;100.00;102356.22;2062811;28;20460;-64
2022/10/16 02:27:53;;;;;;;9.93;6.60;;;;;;;8.13;100.00;102293.22;2062292;28;20439;-64
2022/10/16 02:29:00;;;;;;;10.60;6.83;;;;;;;8.58;100.00;102370.38;2061264;28;20449;-64
2022/10/16 02:30:08;;;;;;;11.20;7.00;;;;;;;8.49;100.00;102358.81;2062497;28;20440;-64
2022/10/16 02:31:14;;;;;;;10.67;6.23;;;;;;;8.52;100.00;102362.78;2062251;28;20459;-64
2022/10/16 02:32:19;;;;;;;9.53;7.07;;;;;;;8.26;100.00;102330.50;2062758;28;20538;-64
2022/10/16 02:33:23;;;;;;;13.23;7.60;;;;;;;8.50;100.00;102368.69;2062580;28;20436;-65
2022/10/16 02:34:26;;;;;;;14.27;7.83;;;;;;;8.24;100.00;102321.00;2061820;28;20974;-64
2022/10/16 02:35:28;;;;;;;12.10;8.70;;;;;;;8.48;100.00;102368.28;2061945;28;20511;-64
2022/10/16 02:36:29;;;;;;;11.33;9.07;;;;;;;8.22;100.00;102337.16;2062717;28;20436;-65
2022/10/16 02:37:31;;;;;;;11.83;9.00;;;;;;;8.33;100.00;102354.66;2062838;28;20495;-65
2022/10/16 02:38:32;;;;;;;13.40;8.00;;;;;;;8.50;100.00;102370.69;2062444;28;20453;-64
2022/10/16 02:39:33;;;;;;;16.83;8.10;;;;;;;8.50;100.00;102370.69;2062527;28;20464;-64
2022/10/16 02:40:34;;;;;;;11.50;7.70;;;;;;;8.08;100.00;102295.50;2061785;28;20612;-64
2022/10/16 02:41:35;;;;;;;10.83;7.57;;;;;;;8.52;100.00;102365.56;2062577;28;20797;-64
2022/10/16 02:42:38;;;;;;;12.67;7.27;;;;;;;8.55;100.00;102370.31;2062537;28;20562;-64
2022/10/16 02:43:39;;;;;;;13.83;8.47;;;;;;;8.55;100.00;102362.84;2061896;28;20270;-64
2022/10/16 02:44:39;;;;;;;12.03;8.30;;;;;;;8.55;100.00;102364.78;2061888;28;20486;-64
2022/10/16 02:45:40;;;;;;;12.30;7.47;;;;;;;8.52;100.00;102362.78;2061948;28;20231;-64
2022/10/16 02:46:41;;;;;;;12.43;8.10;;;;;;;8.53;100.00;102367.97;2062891;28;20185;-64
2022/10/16 02:47:41;;;;;;;13.73;8.73;;;;;;;8.53;100.00;102362.44;2062345;28;20685;-64
2022/10/16 02:48:41;;;;;;;19.60;8.30;;;;;;;8.52;100.00;102371.91;2062184;28;20255;-64
2022/10/16 02:49:42;;;;;;;11.03;7.03;;;;;;;8.52;100.00;102363.59;2062272;28;20320;-64
2022/10/16 02:50:42;;;;;;;13.80;9.30;;;;;;;8.52;100.00;102365.56;2062149;28;20197;-64
2022/10/16 02:51:43;;;;;;;13.30;9.13;;;;;;;8.52;100.00;102373.84;2062368;28;20285;-64
2022/10/16 02:52:43;;;;;;;20.63;9.37;;;;;;;8.51;100.00;102373.03;2062295;28;20327;-64
2022/10/16 02:53:44;;;;;;;12.90;8.63;;;;;;;8.52;100.00;102371.91;2061903;28;20197;-64
2022/10/16 02:54:44;;;;;;;14.67;9.07;;;;;;;8.46;100.00;102364.31;2061857;28;20608;-64
2022/10/16 02:55:45;;;;;;;16.20;9.77;;;;;;;8.40;100.00;102358.31;2062367;28;20645;-64
2022/10/16 02:56:45;;;;;;;13.07;9.70;;;;;;;8.54;100.00;102377.84;2062391;28;20708;-64
2022/10/16 02:57:45;;;;;;;14.10;10.07;;;;;;;8.55;100.00;102381.38;2062358;28;20268;-64
2022/10/16 02:58:46;;;;;;;14.87;10.03;;;;;;;8.52;100.00;102377.44;2062157;28;20674;-64
2022/10/16 02:59:46;;;;;;;13.67;8.90;;;;;;;8.48;100.00;102367.47;2062463;28;20201;-65
2022/10/16 03:00:47;;;;;;;12.13;8.60;;;;;;;8.48;100.00;102368.28;2061969;28;20188;-64
2022/10/16 03:01:47;;;;;;;15.53;9.83;;;;;;;8.54;100.00;102377.03;2062448;28;20583;-64
2022/10/16 03:02:48;;;;;;;12.63;8.63;;;;;;;8.55;100.00;102379.41;2062621;28;20235;-64
2022/10/16 03:03:48;;;;;;;19.70;9.50;;;;;;;8.53;100.00;102380.97;2061860;28;20190;-64
2022/10/16 03:04:49;;;;;;;21.70;10.07;;;;;;;8.54;100.00;102377.03;2061367;28;20224;-64
2022/10/16 03:05:50;;;;;;;19.13;10.27;;;;;;;8.02;100.00;102285.97;2062377;28;20193;-64
2022/10/16 03:06:50;;;;;;;23.03;10.80;;;;;;;8.56;100.00;102378.25;2062337;28;20189;-64
2022/10/16 03:07:52;;;;;;;19.83;9.73;;;;;;;8.59;100.00;102383.03;2062301;28;20477;-64
2022/10/16 03:08:52;;;;;;;22.10;10.53;;;;;;;8.59;100.00;102371.97;2062176;28;20256;-65
2022/10/16 03:09:54;;;;;;;15.43;9.40;;;;;;;8.59;100.00;102374.72;2062488;28;20565;-64
2022/10/16 03:10:54;;;;;;;20.53;10.43;;;;;;;8.60;100.00;102376.31;2062189;28;20252;-64
2022/10/16 03:11:55;;;;;;;20.23;9.93;;;;;;;8.50;100.00;102362.38;2062366;28;20993;-64
2022/10/16 03:12:55;;;;;;;16.67;9.80;;;;;;;8.61;100.00;102377.13;2061917;28;20267;-64
2022/10/16 03:13:56;;;;;;;13.40;9.00;;;;;;;8.63;100.00;102377.53;2061676;28;20579;-64
2022/10/16 03:14:57;;;;;;;11.33;8.63;;;;;;;8.63;100.00;102381.09;2061216;28;20190;-64
2022/10/16 03:15:57;;;;;;;11.90;8.63;;;;;;;8.63;100.00;102378.34;2062490;28;20184;-64
2022/10/16 03:16:58;;;;;;;15.50;9.70;;;;;;;8.63;100.00;102380.28;2062096;28;20935;-64
2022/10/16 03:17:59;;;;;;;12.83;8.80;;;;;;;8.64;100.00;102376.34;2062516;28;20194;-64
2022/10/16 03:18:59;;;;;;;12.77;9.03;;;;;;;8.65;100.00;102381.50;2062420;28;20220;-64
2022/10/16 03:19:59;;;;;;;12.93;8.63;;;;;;;8.34;100.00;102334.94;2062217;28;20198;-64
2022/10/16 03:21:00;;;;;;;11.10;7.97;;;;;;;8.56;100.00;102363.66;2062096;28;20564;-64
2022/10/16 03:22:00;;;;;;;9.70;6.87;;;;;;;8.70;100.00;102392.22;2062079;28;20204;-64
2022/10/16 03:23:02;;;;;;;10.27;6.70;;;;;;;8.66;100.00;102383.09;2062190;28;20368;-64
2022/10/16 03:24:03;;;;;;;11.60;6.23;;;;;;;8.24;100.00;102327.31;2061536;28;20301;-64
2022/10/16 03:25:04;;;;;;;10.73;6.60;;;;;;;8.53;100.00;102381.78;2061381;28;20431;-64
2022/10/16 03:26:04;;;;;;;11.77;6.90;;;;;;;8.48;100.00;102384.06;2062053;28;20705;-64
2022/10/16 03:27:05;;;;;;;15.27;8.60;;;;;;;8.45;100.00;102382.06;2062369;28;20188;-64
2022/10/16 03:28:05;;;;;;;18.57;8.43;;;;;;;8.38;100.00;102380.00;2062063;28;20199;-64
2022/10/16 03:29:06;;;;;;;19.87;8.13;;;;;;;8.35;100.00;102391.78;2062152;28;20190;-63
2022/10/16 03:30:07;;;;;;;14.90;8.33;;;;;;;8.31;100.00;102384.63;2062249;28;20520;-64
2022/10/16 03:31:08;;;;;;;13.53;7.50;;;;;;;8.29;100.00;102390.53;2062046;28;20198;-64
2022/10/16 03:32:08;;;;;;;15.10;7.37;;;;;;;8.27;100.00;102383.78;2062013;28;20505;-64
2022/10/16 03:33:09;;;;;;;11.03;7.20;;;;;;;8.22;100.00;102393.22;2062026;28;20196;-64
2022/10/16 03:34:09;;;;;;;15.80;7.73;;;;;;;8.19;100.00;102382.88;2060968;28;20201;-64
2022/10/16 03:35:10;;;;;;;14.57;7.00;;;;;;;8.20;100.00;102395.53;2061524;28;20221;-64
2022/10/16 03:36:10;;;;;;;13.23;7.30;;;;;;;8.19;100.00;102395.88;2062570;28;20205;-65
2022/10/16 03:37:11;;;;;;;8.70;6.93;;;;;;;8.06;100.00;102375.19;2062296;28;20217;-65
2022/10/16 03:38:11;;;;;;;11.23;6.60;;;;;;;8.10;100.00;102387.84;2062301;28;20201;-65
2022/10/16 03:39:11;;;;;;;8.57;6.50;;;;;;;8.13;100.00;102397.34;2061975;28;20646;-64
2022/10/16 03:40:13;;;;;;;8.67;6.40;;;;;;;8.09;100.00;102402.84;2062032;28;20217;-64
2022/10/16 03:41:14;;;;;;;10.30;6.37;;;;;;;7.61;100.00;102322.84;2061001;28;20747;-64
2022/10/16 03:42:14;;;;;;;7.97;5.90;;;;;;;8.06;100.00;102402.78;2061236;28;20505;-64
2022/10/16 03:43:15;;;;;;;10.23;6.80;;;;;;;8.06;100.00;102405.56;2061888;28;20277;-64
2022/10/16 03:44:15;;;;;;;8.50;6.50;;;;;;;8.02;100.00;102397.22;2060772;28;20186;-64
2022/10/16 03:45:16;;;;;;;7.97;6.20;;;;;;;7.95;100.00;102390.81;2061803;28;20582;-64
2022/10/16 03:46:17;;;;;;;11.83;6.97;;;;;;;7.96;100.00;102406.19;2061820;28;20208;-64
2022/10/16 03:47:21;;;;;;;8.90;6.10;;;;;;;7.93;100.00;102404.16;2061957;28;20198;-64
2022/10/16 03:48:21;;;;;;;8.90;6.70;;;;;;;7.91;100.00;102395.47;2061705;28;20264;-64
2022/10/16 03:49:22;;;;;;;10.80;7.07;;;;;;;7.89;100.00;102401.34;2061849;28;20487;-64
2022/10/16 03:50:22;;;;;;;9.57;6.60;;;;;;;7.86;100.00;102402.13;2061950;28;20616;-65
2022/10/16 03:51:23;;;;;;;10.27;7.27;;;;;;;7.83;100.00;102405.59;2061875;28;20181;-64
2022/10/16 03:52:23;;;;;;;10.10;7.13;;;;;;;7.82;100.00;102397.69;2062092;28;20597;-64
2022/10/16 03:53:24;;;;;;;10.90;7.43;;;;;;;7.82;100.00;102397.69;2061911;28;20193;-65
2022/10/16 03:54:25;;;;;;;9.90;6.47;;;;;;;7.80;100.00;102400.81;2061352;28;20282;-64
2022/10/16 03:55:25;;;;;;;9.30;6.90;;;;;;;7.80;100.00;102403.56;2061523;28;20283;-64
2022/10/16 03:56:26;;;;;;;13.90;7.43;;;;;;;7.38;100.00;102336.69;2062084;28;20200;-64
2022/10/16 03:57:26;;;;;;;15.00;7.53;;;;;;;7.78;100.00;102410.63;2062015;28;20191;-64
2022/10/16 03:58:27;;;;;;;10.83;7.30;;;;;;;7.79;100.00;102409.47;2061641;28;20658;-64
2022/10/16 03:59:27;;;;;;;14.80;7.60;;;;;;;7.76;100.00;102404.69;2061762;28;20199;-64
2022/10/16 04:00:28;;;;;;;9.77;7.43;;;;;;;7.74;100.00;102407.03;2062243;28;20195;-64
2022/10/16 04:01:28;;;;;;;9.93;8.07;;;;;;;7.71;100.00;102425.13;2061979;28;20197;-64
2022/10/16 04:02:28;;;;;;;11.03;8.17;;;;;;;7.64;100.00;102411.19;2061621;28;20212;-63
2022/10/16 04:03:29;;;;;;;14.67;8.50;;;;;;;7.63;100.00;102428.94;2061484;28;20277;-63
2022/10/16 04:04:29;;;;;;;13.57;8.10;;;;;;;7.64;100.00;102426.97;2061405;28;20196;-63
2022/10/16 04:05:30;;;;;;;12.70;8.97;;;;;;;7.57;100.00;102421.31;2061747;28;20181;-63
2022/10/16 04:06:30;;;;;;;12.97;8.97;;;;;;;7.50;100.00;102423.97;2061737;28;20575;-63
2022/10/16 04:07:31;;;;;;;18.90;8.77;;;;;;;7.49;100.00;102431.44;2062026;28;20187;-63
2022/10/16 04:08:34;;;;;;;12.13;8.50;;;;;;;7.50;100.00;102426.72;2061857;28;20637;-63
2022/10/16 04:09:35;;;;;;;17.33;8.52;;;;;;;7.20;100.00;102376.97;2062112;28;21533;-63
2022/10/16 04:10:35;;;;;;;10.30;8.50;;;;;;;7.52;100.00;102429.91;2061647;28;20220;-63
2022/10/16 04:11:36;;;;;;;10.63;7.80;;;;;;;7.50;100.00;102421.22;2061672;28;20279;-63
2022/10/16 04:12:36;;;;;;;10.33;8.10;;;;;;;7.52;100.00;102422.44;2061776;28;20272;-63
2022/10/16 04:13:37;;;;;;;11.37;8.13;;;;;;;7.54;100.00;102424.84;2061449;28;20199;-63
2022/10/16 04:14:37;;;;;;;13.87;7.70;;;;;;;7.55;100.00;102423.66;2061352;28;20662;-63
2022/10/16 04:15:38;;;;;;;14.57;7.83;;;;;;;7.57;100.00;102424.88;2061114;28;20188;-63
2022/10/16 04:16:38;;;;;;;21.03;8.20;;;;;;;7.60;100.00;102421.41;2062316;28;20208;-63
2022/10/16 04:17:39;;;;;;;21.50;8.77;;;;;;;7.59;100.00;102411.50;2061867;28;20628;-63
2022/10/16 04:18:39;;;;;;;27.23;8.63;;;;;;;7.15;100.00;102335.09;2061943;28;20285;-63
2022/10/16 04:19:39;;;;;;;19.03;8.37;;;;;;;7.55;100.00;102404.34;2061818;28;20192;-65
2022/10/16 04:20:40;;;;;;;19.57;8.60;;;;;;;7.64;100.00;102413.97;2061766;28;20202;-63
2022/10/16 04:21:41;;;;;;;15.17;8.40;;;;;;;7.67;100.00;102416.00;2062007;28;20191;-63
2022/10/16 04:22:41;;;;;;;17.87;7.93;;;;;;;7.70;100.00;102417.22;2061279;28;20758;-62
2022/10/16 04:23:42;;;;;;;15.67;7.33;;;;;;;7.70;100.00;102423.50;2061153;28;20250;-63
2022/10/16 04:24:43;;;;;;;10.40;6.72;;;;;;;7.70;100.00;102422.75;2061070;28;20746;-62
2022/10/16 04:25:43;;;;;;;11.90;6.97;;;;;;;7.13;100.00;102334.69;2061391;28;20197;-63
2022/10/16 04:26:44;;;;;;;11.30;6.60;;;;;;;7.69;100.00;102424.69;2061754;28;20207;-62
2022/10/16 04:27:44;;;;;;;12.50;7.50;;;;;;;7.68;100.00;102434.13;2061849;28;20502;-63
2022/10/16 04:28:45;;;;;;;11.07;7.03;;;;;;;7.67;100.00;102431.75;2061388;28;20199;-63
2022/10/16 04:29:45;;;;;;;10.00;7.30;;;;;;;7.65;100.00;102434.91;2061795;28;20228;-63
2022/10/16 04:30:45;;;;;;;9.90;6.47;;;;;;;7.64;100.00;102427.75;2061800;28;20252;-63
2022/10/16 04:31:46;;;;;;;9.17;6.80;;;;;;;6.84;100.00;102307.78;2061645;28;20214;-63
2022/10/16 04:32:51;;;;;;;8.70;6.67;;;;;;;6.84;100.00;102310.53;2061871;28;20180;-63
2022/10/16 04:33:51;;;;;;;12.70;6.85;;;;;;;7.57;100.00;102430.41;2061875;28;20195;-63
2022/10/16 04:34:52;;;;;;;11.23;6.90;;;;;;;7.17;100.00;102388.72;2061076;28;20296;-63
2022/10/16 04:36:00;;;;;;;12.20;6.80;;;;;;;7.52;100.00;102432.66;2061943;28;20718;-63
2022/10/16 04:37:00;;;;;;;10.40;6.78;;;;;;;7.49;100.00;102434.19;2061953;28;20985;-63
2022/10/16 04:38:01;;;;;;;10.20;7.03;;;;;;;7.48;100.00;102429.84;2061985;28;20547;-63
2022/10/16 04:39:01;;;;;;;10.40;6.90;;;;;;;7.45;100.00;102424.28;2061597;28;20222;-63
2022/10/16 04:40:02;;;;;;;10.13;6.93;;;;;;;7.24;100.00;102399.88;2061533;28;20606;-62
2022/10/16 04:41:03;;;;;;;10.87;7.00;;;;;;;7.41;100.00;102426.16;2061644;28;20685;-62
2022/10/16 04:42:04;;;;;;;10.73;7.25;;;;;;;7.39;100.00;102434.03;2061644;28;20351;-63
2022/10/16 04:43:05;;;;;;;10.10;7.23;;;;;;;6.85;100.00;102350.69;2062053;28;20221;-63
2022/10/16 04:44:06;;;;;;;9.27;7.10;;;;;;;7.35;100.00;102427.66;2061161;28;20202;-63
2022/10/16 04:45:07;;;;;;;10.63;6.97;;;;;;;7.23;100.00;102414.03;2061080;28;20203;-63
2022/10/16 04:46:09;;;;;;;11.10;6.80;;;;;;;7.33;100.00;102429.97;2061501;28;20658;-63
2022/10/16 04:47:10;;;;;;;12.02;6.88;;;;;;;7.14;100.00;102414.28;2061692;28;20204;-63
2022/10/16 04:48:11;;;;;;;9.20;7.30;;;;;;;7.30;100.00;102431.50;2061711;28;20195;-63
2022/10/16 04:49:11;;;;;;;13.67;7.10;;;;;;;7.21;100.00;102416.34;2061476;28;20187;-63
2022/10/16 04:50:12;;;;;;;10.53;7.30;;;;;;;7.27;100.00;102431.44;2061644;28;20278;-63
2022/10/16 04:51:12;;;;;;;10.67;7.40;;;;;;;7.26;100.00;102435.34;2061555;28;20192;-63